createdAt,value
2018-03-24T00:01:00.865Z,8.70
2018-03-24T00:03:28.454Z,8.83
2018-03-24T00:05:56.403Z,7.77
2018-03-24T00:08:24.062Z,8.83
2018-03-24T00:10:51.568Z,9.87
2018-03-24T00:13:19.480Z,8.50
2018-03-24T00:15:47.022Z,9.33
2018-03-24T00:18:14.548Z,9.03
2018-03-24T00:20:42.470Z,8.37
2018-03-24T00:23:09.980Z,10.17
2018-03-24T00:25:37.507Z,7.87
2018-03-24T00:28:05.021Z,9.17
2018-03-24T00:30:32.520Z,10.30
2018-03-24T00:33:00.048Z,10.43
2018-03-24T00:35:27.578Z,10.93
2018-03-24T00:37:55.128Z,10.20
2018-03-24T00:40:22.652Z,10.43
2018-03-24T00:42:50.189Z,8.37
2018-03-24T00:45:17.691Z,9.53
2018-03-24T00:47:45.612Z,10.50
2018-03-24T00:50:13.119Z,9.60
2018-03-24T00:52:41.039Z,9.37
2018-03-24T00:55:08.585Z,9.00
2018-03-24T00:57:36.125Z,9.17
2018-03-24T01:00:03.632Z,7.20
2018-03-24T01:02:31.163Z,10.43
2018-03-24T01:04:58.667Z,9.57
2018-03-24T01:07:26.619Z,8.60
2018-03-24T01:09:54.132Z,9.27
2018-03-24T01:12:21.647Z,8.10
2018-03-24T01:14:49.591Z,8.53
2018-03-24T01:17:17.128Z,7.93
2018-03-24T01:19:44.662Z,9.90
2018-03-24T01:22:12.161Z,10.13
2018-03-24T01:24:39.691Z,9.07
2018-03-24T01:27:07.200Z,10.30
2018-03-24T01:29:35.158Z,11.83
2018-03-24T01:32:03.074Z,12.13
2018-03-24T01:34:30.736Z,9.83
2018-03-24T01:36:58.239Z,10.33
2018-03-24T01:39:25.771Z,12.27
2018-03-24T01:41:53.291Z,9.20
2018-03-24T01:44:20.813Z,11.00
2018-03-24T01:46:48.336Z,11.87
2018-03-24T01:49:15.880Z,8.33
2018-03-24T01:51:43.390Z,11.20
2018-03-24T01:54:10.924Z,10.50
2018-03-24T01:56:38.430Z,10.47
2018-03-24T01:59:06.368Z,9.63
2018-03-24T02:01:33.878Z,9.17
2018-03-24T02:04:01.389Z,10.77
2018-03-24T02:06:29.394Z,8.60
2018-03-24T02:08:56.911Z,9.83
2018-03-24T02:11:24.476Z,9.30
2018-03-24T02:13:51.976Z,11.50
2018-03-24T02:16:19.499Z,12.13
2018-03-24T02:18:47.404Z,10.00
2018-03-24T02:24:03.770Z,13.50
2018-03-24T02:26:31.316Z,11.57
2018-03-24T02:28:58.839Z,10.93
2018-03-24T02:31:26.374Z,12.13
2018-03-24T02:33:53.896Z,14.50
2018-03-24T02:36:21.439Z,15.10
2018-03-24T02:38:48.939Z,12.60
2018-03-24T02:41:16.895Z,13.30
2018-03-24T02:43:44.803Z,13.63
2018-03-24T02:46:12.323Z,11.60
2018-03-24T02:48:40.249Z,12.67
2018-03-24T02:51:07.840Z,13.67
2018-03-24T02:53:35.399Z,11.83
2018-03-24T02:56:03.334Z,11.83
2018-03-24T02:58:30.887Z,11.80
2018-03-24T03:00:58.412Z,14.03
2018-03-24T03:03:25.960Z,14.57
2018-03-24T03:05:53.871Z,12.57
2018-03-24T03:08:21.388Z,16.63
2018-03-24T03:10:49.290Z,14.97
2018-03-24T03:13:16.867Z,14.13
2018-03-24T03:15:44.360Z,14.13
2018-03-24T03:18:12.374Z,15.53
2018-03-24T03:20:39.896Z,13.80
2018-03-24T03:23:07.470Z,13.10
2018-03-24T03:25:34.991Z,15.97
2018-03-24T03:28:02.564Z,13.53
2018-03-24T03:30:49.227Z,13.40
2018-03-24T03:33:16.758Z,15.67
2018-03-24T03:35:44.266Z,14.93
2018-03-24T03:38:11.803Z,15.37
2018-03-24T03:40:39.333Z,14.70
2018-03-24T03:43:06.860Z,13.77
2018-03-24T03:45:34.762Z,12.57
2018-03-24T03:48:02.295Z,14.77
2018-03-24T03:50:29.822Z,14.20
2018-03-24T03:52:57.377Z,13.70
2018-03-24T03:55:24.899Z,12.30
2018-03-24T03:57:52.423Z,13.17
2018-03-24T04:00:20.412Z,13.93
2018-03-24T04:02:48.295Z,13.93
2018-03-24T04:05:15.844Z,13.47
2018-03-24T04:07:43.453Z,13.27
2018-03-24T04:10:11.001Z,12.70
2018-03-24T04:12:38.521Z,12.93
2018-03-24T04:15:06.080Z,12.97
2018-03-24T04:17:33.595Z,14.60
2018-03-24T04:20:01.527Z,26.23
2018-03-24T04:22:29.051Z,13.73
2018-03-24T04:24:56.591Z,26.07
2018-03-24T04:27:24.512Z,13.93
2018-03-24T04:29:52.052Z,15.47
2018-03-24T04:32:19.565Z,17.80
2018-03-24T04:34:47.487Z,16.77
2018-03-24T04:37:15.018Z,17.50
2018-03-24T04:39:42.563Z,17.40
2018-03-24T04:42:10.582Z,16.53
2018-03-24T04:44:38.113Z,17.70
2018-03-24T04:47:05.687Z,19.10
2018-03-24T04:49:33.198Z,18.50
2018-03-24T04:52:01.134Z,17.60
2018-03-24T04:54:28.675Z,18.73
2018-03-24T04:56:56.235Z,22.03
2018-03-24T04:59:23.755Z,17.70
2018-03-24T05:01:51.354Z,18.43
2018-03-24T05:04:18.926Z,17.97
2018-03-24T05:06:46.488Z,23.83
2018-03-24T05:09:14.053Z,19.43
2018-03-24T05:11:41.583Z,21.47
2018-03-24T05:14:09.110Z,23.37
2018-03-24T05:16:36.699Z,22.63
2018-03-24T05:19:04.227Z,18.83
2018-03-24T05:21:31.786Z,22.20
2018-03-24T05:24:00.212Z,23.00
2018-03-24T05:26:27.856Z,21.40
2018-03-24T05:28:55.559Z,21.73
2018-03-24T05:31:23.059Z,22.57
2018-03-24T05:33:50.571Z,20.17
2018-03-24T05:36:18.150Z,20.40
2018-03-24T05:38:45.714Z,26.57
2018-03-24T05:41:13.255Z,20.57
2018-03-24T05:43:41.175Z,22.93
2018-03-24T05:46:08.728Z,26.13
2018-03-24T05:48:36.473Z,22.00
2018-03-24T05:51:03.976Z,24.27
2018-03-24T05:53:31.600Z,25.57
2018-03-24T05:55:59.177Z,18.57
2018-03-24T05:58:26.723Z,22.37
2018-03-24T06:00:54.260Z,26.07
2018-03-24T06:03:21.851Z,21.43
2018-03-24T06:05:49.369Z,22.47
2018-03-24T06:08:16.920Z,19.03
2018-03-24T06:10:44.832Z,23.53
2018-03-24T06:13:12.391Z,21.77
2018-03-24T06:15:39.948Z,28.90
2018-03-24T06:18:07.508Z,20.20
2018-03-24T06:20:35.029Z,23.43
2018-03-24T06:23:02.968Z,20.40
2018-03-24T06:25:30.499Z,27.73
2018-03-24T06:27:58.040Z,22.73
2018-03-24T06:30:42.390Z,23.13
2018-03-24T06:33:09.928Z,19.17
2018-03-24T06:35:37.457Z,20.30
2018-03-24T06:38:05.032Z,13.27
2018-03-24T06:40:32.508Z,12.93
2018-03-24T06:43:00.029Z,13.80
2018-03-24T06:45:27.628Z,11.17
2018-03-24T06:47:55.184Z,12.60
2018-03-24T06:50:22.740Z,10.60
2018-03-24T06:52:50.272Z,11.17
2018-03-24T06:55:18.171Z,8.17
2018-03-24T06:57:45.682Z,7.67
2018-03-24T07:00:13.208Z,7.03
2018-03-24T07:02:40.719Z,8.53
2018-03-24T07:05:08.642Z,6.77
2018-03-24T07:07:36.144Z,6.97
2018-03-24T07:10:04.079Z,7.03
2018-03-24T07:12:31.588Z,5.93
2018-03-24T07:14:59.127Z,6.93
2018-03-24T07:17:27.031Z,6.23
2018-03-24T07:19:54.552Z,7.93
2018-03-24T07:22:22.456Z,6.33
2018-03-24T07:24:49.983Z,9.23
2018-03-24T07:27:17.885Z,8.30
2018-03-24T07:29:45.418Z,9.13
2018-03-24T07:32:12.929Z,9.57
2018-03-24T07:34:40.455Z,6.67
2018-03-24T07:37:07.952Z,7.33
2018-03-24T07:39:35.469Z,7.90
2018-03-24T07:42:03.016Z,7.70
2018-03-24T07:44:30.551Z,7.87
2018-03-24T07:46:58.457Z,8.77
2018-03-24T07:49:26.092Z,6.90
2018-03-24T07:51:53.620Z,7.73
2018-03-24T07:54:21.516Z,8.27
2018-03-24T07:56:49.035Z,9.57
2018-03-24T07:59:16.543Z,9.17
2018-03-24T08:01:44.085Z,7.60
2018-03-24T08:04:11.603Z,7.00
2018-03-24T08:06:39.136Z,6.17
2018-03-24T08:09:06.646Z,4.63
2018-03-24T08:11:34.564Z,7.53
2018-03-24T08:14:02.078Z,5.77
2018-03-24T08:16:30.021Z,4.63
2018-03-24T08:18:57.938Z,4.53
2018-03-24T08:21:25.473Z,7.57
2018-03-24T08:23:52.985Z,5.13
2018-03-24T08:26:20.532Z,5.40
2018-03-24T08:28:48.042Z,5.37
2018-03-24T08:31:16.007Z,5.33
2018-03-24T08:33:43.916Z,7.20
2018-03-24T08:36:11.469Z,6.03
2018-03-24T08:38:38.996Z,7.27
2018-03-24T08:41:06.930Z,4.87
2018-03-24T08:43:34.459Z,4.30
2018-03-24T08:46:01.975Z,5.60
2018-03-24T08:48:29.887Z,6.40
2018-03-24T08:50:57.404Z,5.27
2018-03-24T08:53:25.334Z,5.97
2018-03-24T08:55:52.871Z,5.33
2018-03-24T08:58:20.418Z,6.93
2018-03-24T09:00:47.916Z,4.80
2018-03-24T09:03:15.446Z,5.07
2018-03-24T09:05:42.964Z,6.20
2018-03-24T09:08:10.539Z,6.60
2018-03-24T09:10:38.051Z,5.83
2018-03-24T09:13:05.584Z,6.83
2018-03-24T09:15:33.102Z,5.53
2018-03-24T09:18:00.634Z,5.47
2018-03-24T09:20:28.542Z,5.47
2018-03-24T09:22:56.086Z,5.97
2018-03-24T09:25:23.596Z,6.73
2018-03-24T09:27:51.151Z,7.30
2018-03-24T09:30:18.780Z,6.40
2018-03-24T09:32:46.345Z,6.30
2018-03-24T09:35:13.860Z,4.77
2018-03-24T09:37:41.935Z,6.17
2018-03-24T09:40:09.840Z,4.60
2018-03-24T09:42:37.438Z,4.23
2018-03-24T09:45:05.384Z,8.43
2018-03-24T09:47:32.893Z,5.37
2018-03-24T09:53:22.723Z,6.33
2018-03-24T09:55:50.223Z,5.57
2018-03-24T09:58:17.741Z,5.13
2018-03-24T10:00:45.315Z,5.83
2018-03-24T10:03:12.822Z,5.73
2018-03-24T10:05:40.747Z,5.27
2018-03-24T10:08:08.259Z,5.07
2018-03-24T10:10:35.817Z,6.50
2018-03-24T10:13:03.316Z,5.77
2018-03-24T10:15:30.904Z,6.03
2018-03-24T10:17:58.699Z,5.80
2018-03-24T10:20:48.928Z,6.07
2018-03-24T10:23:36.997Z,7.10
2018-03-24T10:26:04.537Z,6.83
2018-03-24T10:28:32.044Z,5.70
2018-03-24T10:30:59.582Z,7.37
2018-03-24T10:33:27.605Z,6.43
2018-03-24T10:35:55.147Z,6.73
2018-03-24T10:38:22.673Z,7.50
2018-03-24T10:40:50.230Z,6.50
2018-03-24T10:43:23.855Z,6.70
2018-03-24T10:45:51.391Z,7.10
2018-03-24T10:48:19.295Z,6.87
2018-03-24T10:50:46.827Z,8.77
2018-03-24T10:53:14.349Z,8.70
2018-03-24T10:55:41.875Z,8.50
2018-03-24T10:58:09.387Z,8.27
2018-03-24T11:00:37.287Z,9.07
2018-03-24T11:03:04.849Z,7.93
2018-03-24T11:05:32.348Z,8.70
2018-03-24T11:07:59.862Z,10.03
2018-03-24T11:10:27.364Z,9.83
2018-03-24T11:12:54.892Z,9.57
2018-03-24T11:15:22.441Z,10.73
2018-03-24T11:17:49.967Z,7.70
2018-03-24T11:20:17.504Z,8.43
2018-03-24T11:22:45.026Z,7.70
2018-03-24T11:25:12.544Z,8.80
2018-03-24T11:27:40.485Z,5.97
2018-03-24T11:30:08.011Z,7.40
2018-03-24T11:32:35.666Z,7.43
2018-03-24T11:35:03.183Z,5.20
2018-03-24T11:37:31.135Z,7.53
2018-03-24T11:39:59.071Z,7.07
2018-03-24T11:42:26.591Z,6.63
2018-03-24T11:44:54.141Z,5.50
2018-03-24T11:47:22.055Z,7.37
2018-03-24T11:49:49.556Z,7.03
2018-03-24T11:52:17.464Z,6.43
2018-03-24T11:54:45.042Z,8.20
2018-03-24T11:57:12.530Z,10.40
2018-03-24T11:59:40.552Z,9.00
2018-03-24T12:02:08.074Z,8.00
2018-03-24T12:04:36.067Z,7.90
2018-03-24T12:07:03.582Z,7.87
2018-03-24T12:09:31.595Z,7.40
2018-03-24T12:11:59.120Z,8.17
2018-03-24T12:14:27.054Z,8.10
2018-03-24T12:16:54.554Z,8.37
2018-03-24T12:19:22.476Z,8.67
2018-03-24T12:21:49.983Z,8.67
2018-03-24T12:24:17.509Z,8.57
2018-03-24T12:26:45.012Z,8.80
2018-03-24T12:29:12.539Z,9.53
2018-03-24T12:31:40.443Z,8.63
2018-03-24T12:34:08.011Z,7.53
2018-03-24T12:36:35.539Z,9.33
2018-03-24T12:39:03.082Z,9.80
2018-03-24T12:41:31.008Z,8.90
2018-03-24T12:43:58.542Z,11.80
2018-03-24T12:46:26.072Z,9.47
2018-03-24T12:48:53.978Z,10.63
2018-03-24T12:51:21.573Z,9.13
2018-03-24T12:53:49.073Z,9.10
2018-03-24T12:56:16.613Z,11.23
2018-03-24T12:58:44.123Z,8.27
2018-03-24T13:01:11.635Z,9.53
2018-03-24T13:03:39.216Z,10.53
2018-03-24T13:06:06.755Z,8.47
2018-03-24T13:08:34.356Z,10.00
2018-03-24T13:11:01.891Z,9.70
2018-03-24T13:13:29.434Z,13.33
2018-03-24T13:15:56.961Z,8.50
2018-03-24T13:18:24.467Z,9.73
2018-03-24T13:20:51.991Z,9.30
2018-03-24T13:23:19.959Z,10.17
2018-03-24T13:25:47.928Z,10.20
2018-03-24T13:28:15.842Z,8.40
2018-03-24T13:30:43.343Z,8.63
2018-03-24T13:33:11.308Z,9.20
2018-03-24T13:35:38.816Z,8.70
2018-03-24T13:38:06.348Z,8.97
2018-03-24T13:40:34.253Z,10.30
2018-03-24T13:43:01.833Z,10.30
2018-03-24T13:45:29.354Z,6.93
2018-03-24T13:47:56.912Z,15.47
2018-03-24T13:50:24.434Z,9.53
2018-03-24T13:52:52.358Z,10.50
2018-03-24T13:55:19.897Z,9.00
2018-03-24T13:57:47.422Z,8.80
2018-03-24T14:00:16.160Z,9.63
2018-03-24T14:02:43.690Z,8.03
2018-03-24T14:05:11.227Z,10.13
2018-03-24T14:07:39.142Z,8.83
2018-03-24T14:10:06.779Z,10.40
2018-03-24T14:12:34.362Z,6.90
2018-03-24T14:15:01.871Z,8.07
2018-03-24T14:17:29.420Z,8.53
2018-03-24T14:19:57.339Z,11.17
2018-03-24T14:22:24.863Z,10.63
2018-03-24T14:24:52.374Z,8.17
2018-03-24T14:27:19.912Z,9.17
2018-03-24T14:29:47.427Z,8.30
2018-03-24T14:32:14.987Z,9.73
2018-03-24T14:34:42.900Z,11.40
2018-03-24T14:37:10.406Z,8.60
2018-03-24T14:39:38.344Z,9.13
2018-03-24T14:42:05.857Z,11.10
2018-03-24T14:44:33.399Z,13.07
2018-03-24T14:47:00.923Z,10.47
2018-03-24T14:49:28.552Z,9.03
2018-03-24T14:51:56.045Z,8.70
2018-03-24T14:54:23.622Z,8.10
2018-03-24T14:56:51.527Z,9.67
2018-03-24T14:59:19.084Z,10.23
2018-03-24T15:01:46.588Z,8.50
2018-03-24T15:04:14.129Z,8.40
2018-03-24T15:06:41.667Z,11.03
2018-03-24T15:09:09.195Z,8.57
2018-03-24T15:11:36.843Z,8.67
2018-03-24T15:14:04.783Z,10.53
2018-03-24T15:16:32.404Z,8.80
2018-03-24T15:18:59.951Z,12.77
2018-03-24T15:21:27.462Z,10.60
2018-03-24T15:23:54.987Z,9.93
2018-03-24T15:26:22.581Z,10.97
2018-03-24T15:29:02.146Z,12.03
2018-03-24T15:31:41.787Z,11.00
2018-03-24T15:34:21.658Z,11.73
2018-03-24T15:36:49.223Z,13.00
2018-03-24T15:39:16.764Z,11.27
2018-03-24T15:41:44.275Z,12.53
2018-03-24T15:44:11.816Z,11.63
2018-03-24T15:46:39.331Z,12.93
2018-03-24T15:49:07.282Z,12.03
2018-03-24T15:51:35.207Z,12.00
2018-03-24T15:54:02.768Z,11.47
2018-03-24T15:56:30.315Z,15.57
2018-03-24T15:58:57.874Z,13.63
2018-03-24T16:01:25.394Z,10.57
2018-03-24T16:03:53.329Z,14.73
2018-03-24T16:06:20.883Z,11.77
2018-03-24T16:08:48.416Z,11.33
2018-03-24T16:11:15.951Z,14.10
2018-03-24T16:13:43.532Z,12.67
2018-03-24T16:16:11.056Z,13.93
2018-03-24T16:18:38.963Z,14.23
2018-03-24T16:21:06.497Z,15.60
2018-03-24T16:23:34.008Z,17.70
2018-03-24T16:26:01.561Z,19.27
2018-03-24T16:28:29.079Z,17.83
2018-03-24T16:30:56.589Z,19.47
2018-03-24T16:33:24.120Z,16.13
2018-03-24T16:35:51.633Z,19.60
2018-03-24T16:38:19.563Z,24.27
2018-03-24T16:40:47.085Z,20.07
2018-03-24T16:43:14.620Z,14.97
2018-03-24T16:45:42.118Z,13.80
2018-03-24T16:48:09.639Z,18.77
2018-03-24T16:50:37.154Z,15.67
2018-03-24T16:53:05.184Z,18.73
2018-03-24T16:55:32.695Z,16.97
2018-03-24T16:58:00.640Z,13.70
2018-03-24T17:00:28.165Z,15.77
2018-03-24T17:02:55.694Z,20.20
2018-03-24T17:05:23.615Z,14.10
2018-03-24T17:07:51.140Z,17.77
2018-03-24T17:10:18.658Z,19.77
2018-03-24T17:12:46.222Z,17.93
2018-03-24T17:15:14.128Z,19.80
2018-03-24T17:17:41.666Z,20.00
2018-03-24T17:20:09.187Z,18.47
2018-03-24T17:22:36.705Z,19.57
2018-03-24T17:25:04.240Z,15.90
2018-03-24T17:27:32.152Z,15.07
2018-03-24T17:29:59.694Z,17.73
2018-03-24T17:32:27.299Z,18.43
2018-03-24T17:34:54.831Z,13.23
2018-03-24T17:37:22.335Z,16.30
2018-03-24T17:39:49.899Z,18.73
2018-03-24T17:42:17.493Z,17.90
2018-03-24T17:44:45.090Z,18.60
2018-03-24T17:47:12.712Z,18.07
2018-03-24T17:49:40.243Z,16.23
2018-03-24T17:52:07.780Z,17.53
2018-03-24T17:54:35.720Z,18.43
2018-03-24T17:57:03.339Z,24.27
2018-03-24T17:59:30.867Z,18.63
2018-03-24T18:01:58.389Z,22.90
2018-03-24T18:04:26.017Z,20.03
2018-03-24T18:06:53.546Z,18.90
2018-03-24T18:09:21.443Z,22.07
2018-03-24T18:11:48.982Z,20.40
2018-03-24T18:14:16.486Z,20.17
2018-03-24T18:16:44.017Z,20.93
2018-03-24T18:19:11.537Z,19.17
2018-03-24T18:21:39.473Z,21.80
2018-03-24T18:24:06.971Z,20.27
2018-03-24T18:26:34.898Z,18.23
2018-03-24T18:29:02.399Z,18.83
2018-03-24T18:31:29.943Z,19.47
2018-03-24T18:33:57.856Z,23.73
2018-03-24T18:36:25.387Z,27.47
2018-03-24T18:38:52.912Z,22.67
2018-03-24T18:41:20.502Z,21.87
2018-03-24T18:43:48.395Z,21.87
2018-03-24T18:46:15.952Z,18.27
2018-03-24T18:48:43.459Z,21.67
2018-03-24T18:51:11.072Z,19.57
2018-03-24T18:53:38.620Z,29.20
2018-03-24T18:56:06.166Z,22.53
2018-03-24T18:58:33.696Z,17.80
2018-03-24T19:01:01.315Z,15.90
2018-03-24T19:03:28.882Z,20.17
2018-03-24T19:05:56.392Z,18.83
2018-03-24T19:08:24.371Z,21.37
2018-03-24T19:10:51.896Z,21.47
2018-03-24T19:13:19.428Z,23.27
2018-03-24T19:15:46.961Z,33.53
2018-03-24T19:18:14.516Z,25.73
2018-03-24T19:20:42.034Z,24.37
2018-03-24T19:23:09.975Z,19.40
2018-03-24T19:25:37.501Z,20.93
2018-03-24T19:28:05.027Z,21.37
2018-03-24T19:30:32.929Z,18.87
2018-03-24T19:33:00.455Z,17.97
2018-03-24T19:35:28.355Z,18.83
2018-03-24T19:37:55.908Z,22.13
2018-03-24T19:40:23.433Z,20.87
2018-03-24T19:42:51.378Z,19.33
2018-03-24T19:45:18.998Z,16.67
2018-03-24T19:47:46.556Z,19.87
2018-03-24T19:50:14.109Z,18.83
2018-03-24T19:52:41.647Z,19.30
2018-03-24T19:55:09.586Z,20.27
2018-03-24T19:57:37.110Z,22.77
2018-03-24T20:00:04.679Z,19.17
2018-03-24T20:02:32.240Z,20.63
2018-03-24T20:04:59.768Z,19.97
2018-03-24T20:07:27.285Z,21.73
2018-03-24T20:09:55.304Z,21.37
2018-03-24T20:12:22.808Z,23.37
2018-03-24T20:14:50.744Z,23.03
2018-03-24T20:17:18.247Z,20.87
2018-03-24T20:19:46.177Z,23.70
2018-03-24T20:22:13.809Z,24.10
2018-03-24T20:24:41.373Z,22.57
2018-03-24T20:27:08.891Z,22.33
2018-03-24T20:29:36.829Z,22.50
2018-03-24T20:32:04.351Z,20.30
2018-03-24T20:34:31.959Z,20.20
2018-03-24T20:36:59.475Z,24.13
2018-03-24T20:39:27.008Z,21.17
2018-03-24T20:41:54.528Z,21.10
2018-03-24T20:44:22.050Z,22.57
2018-03-24T20:46:49.575Z,25.93
2018-03-24T20:49:17.476Z,21.30
2018-03-24T20:51:45.025Z,25.73
2018-03-24T20:54:12.596Z,26.43
2018-03-24T20:56:40.119Z,22.70
2018-03-24T20:59:07.637Z,23.20
2018-03-24T21:01:35.177Z,26.33
2018-03-24T21:04:02.771Z,21.63
2018-03-24T21:06:30.296Z,19.97
2018-03-24T21:08:57.811Z,19.00
2018-03-24T21:11:25.343Z,20.97
2018-03-24T21:13:52.860Z,21.40
2018-03-24T21:16:20.469Z,19.10
2018-03-24T21:18:48.361Z,18.50
2018-03-24T21:21:15.911Z,17.60
2018-03-24T21:23:43.418Z,16.63
2018-03-24T21:26:10.938Z,15.13
2018-03-24T21:28:38.456Z,16.10
2018-03-24T21:31:05.993Z,16.93
2018-03-24T21:33:33.512Z,21.23
2018-03-24T21:36:01.019Z,15.67
2018-03-24T21:38:28.542Z,18.17
2018-03-24T21:40:56.079Z,15.67
2018-03-24T21:43:23.620Z,13.23
2018-03-24T21:45:51.526Z,16.03
2018-03-24T21:48:19.088Z,17.10
2018-03-24T21:50:46.678Z,15.13
2018-03-24T21:53:14.190Z,16.43
2018-03-24T21:55:41.737Z,15.77
2018-03-24T21:58:09.273Z,18.40
2018-03-24T22:00:37.188Z,17.20
2018-03-24T22:03:04.715Z,15.03
2018-03-24T22:05:32.616Z,16.80
2018-03-24T22:08:00.140Z,15.20
2018-03-24T22:10:28.046Z,16.93
2018-03-24T22:12:55.715Z,14.20
2018-03-24T22:15:23.241Z,17.30
2018-03-24T22:17:50.796Z,21.07
2018-03-24T22:20:18.311Z,16.60
2018-03-24T22:22:45.842Z,15.37
2018-03-24T22:25:13.462Z,19.17
2018-03-24T22:27:41.039Z,16.43
2018-03-24T22:30:08.663Z,18.47
2018-03-24T22:32:36.157Z,20.40
2018-03-24T22:35:03.681Z,16.23
2018-03-24T22:37:31.696Z,19.37
2018-03-24T22:39:59.211Z,18.30
2018-03-24T22:42:27.210Z,14.93
2018-03-24T22:44:54.741Z,18.57
2018-03-24T22:47:22.841Z,17.10
2018-03-24T22:49:50.395Z,16.03
2018-03-24T22:52:17.900Z,17.47
2018-03-24T22:54:45.432Z,18.00
2018-03-24T22:57:12.943Z,15.70
2018-03-24T22:59:40.924Z,22.10
2018-03-24T23:02:08.463Z,15.90
2018-03-24T23:04:36.407Z,18.40
2018-03-24T23:07:04.334Z,17.00
2018-03-24T23:09:31.867Z,18.27
2018-03-24T23:11:59.475Z,17.43
2018-03-24T23:14:27.035Z,15.70
2018-03-24T23:16:54.543Z,18.23
2018-03-24T23:19:22.506Z,15.40
2018-03-24T23:21:50.035Z,13.47
2018-03-24T23:24:17.582Z,13.77
2018-03-24T23:26:45.100Z,14.13
2018-03-24T23:29:12.690Z,12.27
2018-03-24T23:31:40.218Z,20.23
2018-03-24T23:34:07.736Z,19.07
2018-03-24T23:36:35.691Z,16.80
2018-03-24T23:39:03.215Z,17.63
2018-03-24T23:41:30.755Z,20.90
2018-03-24T23:43:58.663Z,16.93
2018-03-24T23:46:26.301Z,19.00
2018-03-24T23:48:53.895Z,21.63
2018-03-24T23:51:21.854Z,20.40
2018-03-24T23:53:49.751Z,15.50
2018-03-24T23:56:17.687Z,16.80
2018-03-24T23:58:45.187Z,15.20
